createdAt,value
2022-11-21T00:00:48.792Z,-0.63
2022-11-21T00:03:15.193Z,-0.63
2022-11-21T00:05:42.974Z,-0.62
2022-11-21T00:08:10.232Z,-0.67
2022-11-21T00:10:36.858Z,-0.70
2022-11-21T00:13:03.253Z,-0.73
2022-11-21T00:15:29.640Z,-0.74
2022-11-21T00:17:56.061Z,-0.73
2022-11-21T00:20:22.508Z,-0.79
2022-11-21T00:22:49.109Z,-0.69
2022-11-21T00:25:15.688Z,-0.61
2022-11-21T00:27:42.214Z,-0.57
2022-11-21T00:30:09.547Z,-0.61
2022-11-21T00:32:35.999Z,-0.67
2022-11-21T00:35:02.431Z,-0.76
2022-11-21T00:37:28.827Z,-0.76
2022-11-21T00:39:55.214Z,-0.78
2022-11-21T00:42:21.608Z,-0.87
2022-11-21T00:44:48.004Z,-0.92
2022-11-21T00:47:14.396Z,-0.98
2022-11-21T00:49:40.845Z,-0.95
2022-11-21T00:52:07.290Z,-0.94
2022-11-21T00:54:33.660Z,-0.94
2022-11-21T00:57:00.051Z,-0.93
2022-11-21T00:59:26.434Z,-0.93
2022-11-21T01:01:52.844Z,-0.88
2022-11-21T01:04:19.212Z,-0.81
2022-11-21T01:06:45.649Z,-0.75
2022-11-21T01:09:12.056Z,-0.72
2022-11-21T01:11:38.449Z,-0.70
2022-11-21T01:14:04.926Z,-0.67
2022-11-21T01:16:31.645Z,-0.70
2022-11-21T01:18:58.110Z,-0.79
2022-11-21T01:21:26.289Z,-0.91
2022-11-21T01:23:52.665Z,-1.02
2022-11-21T01:26:20.626Z,-1.10
2022-11-21T01:28:47.113Z,-1.13
2022-11-21T01:31:21.199Z,-1.16
2022-11-21T01:33:47.973Z,-1.13
2022-11-21T01:36:17.190Z,-1.06
2022-11-21T01:38:45.188Z,-1.05
2022-11-21T01:41:12.041Z,-1.07
2022-11-21T01:43:38.828Z,-1.05
2022-11-21T01:46:05.115Z,-1.05
2022-11-21T01:48:54.127Z,-1.03
2022-11-21T01:51:22.743Z,-1.02
2022-11-21T01:54:07.706Z,-1.00
2022-11-21T01:56:37.630Z,-1.00
2022-11-21T01:59:04.029Z,-1.04
2022-11-21T02:01:30.513Z,-1.11
2022-11-21T02:03:57.106Z,-1.13
2022-11-21T02:06:24.033Z,-1.11
2022-11-21T02:08:50.443Z,-1.04
2022-11-21T02:11:45.986Z,-0.92
2022-11-21T02:14:12.378Z,-0.83
2022-11-21T02:16:38.821Z,-0.74
2022-11-21T02:19:05.290Z,-0.69
2022-11-21T02:21:50.371Z,-0.68
2022-11-21T02:24:46.007Z,-0.68
2022-11-21T02:27:12.418Z,-0.69
2022-11-21T02:29:39.448Z,-0.71
2022-11-21T02:32:06.117Z,-0.71
2022-11-21T02:34:33.105Z,-0.77
2022-11-21T02:36:59.828Z,-0.87
2022-11-21T02:39:28.734Z,-0.96
2022-11-21T02:42:12.829Z,-0.98
2022-11-21T02:44:46.168Z,-0.91
2022-11-21T02:47:12.552Z,-0.86
2022-11-21T02:49:56.462Z,-0.83
2022-11-21T02:52:22.892Z,-0.81
2022-11-21T02:54:49.285Z,-0.87
2022-11-21T02:57:15.661Z,-0.99
2022-11-21T02:59:42.127Z,-0.81
2022-11-21T03:02:08.537Z,-0.78
2022-11-21T03:04:34.943Z,-0.86
2022-11-21T03:07:01.440Z,-0.81
2022-11-21T03:09:27.884Z,-0.83
2022-11-21T03:11:54.305Z,-0.85
2022-11-21T03:14:20.729Z,-0.86
2022-11-21T03:16:47.140Z,-0.88
2022-11-21T03:19:13.512Z,-0.90
2022-11-21T03:21:39.891Z,-0.93
2022-11-21T03:24:06.939Z,-0.90
2022-11-21T03:26:33.343Z,-0.93
2022-11-21T03:28:59.851Z,-0.97
2022-11-21T03:31:26.242Z,-0.97
2022-11-21T03:33:52.635Z,-0.97
2022-11-21T03:36:19.031Z,-0.94
2022-11-21T03:38:45.454Z,-0.89
2022-11-21T03:41:11.864Z,-0.89
2022-11-21T03:43:38.287Z,-0.88
2022-11-21T03:46:04.665Z,-0.90
2022-11-21T03:48:31.491Z,-0.91
2022-11-21T03:50:57.877Z,-0.91
2022-11-21T03:53:24.265Z,-0.90
2022-11-21T03:55:50.687Z,-0.93
2022-11-21T03:58:17.087Z,-0.95
2022-11-21T04:00:43.527Z,-0.98
2022-11-21T04:03:09.943Z,-0.95
2022-11-21T04:05:36.347Z,-1.02
2022-11-21T04:08:02.773Z,-1.05
2022-11-21T04:10:29.173Z,-1.08
2022-11-21T04:12:55.559Z,-1.07
2022-11-21T04:15:21.978Z,-1.09
2022-11-21T04:17:48.360Z,-1.16
2022-11-21T04:20:15.328Z,-1.15
2022-11-21T04:22:42.286Z,-1.13
2022-11-21T04:25:08.759Z,-1.14
2022-11-21T04:27:35.181Z,-1.13
2022-11-21T04:30:01.860Z,-1.09
2022-11-21T04:32:28.271Z,-1.10
2022-11-21T04:34:54.661Z,-1.15
2022-11-21T04:37:21.134Z,-1.18
2022-11-21T04:39:47.549Z,-1.18
2022-11-21T04:42:13.988Z,-1.22
2022-11-21T04:44:40.382Z,-1.24
2022-11-21T04:47:06.778Z,-1.22
2022-11-21T04:49:33.225Z,-1.21
2022-11-21T04:51:59.718Z,-1.15
2022-11-21T04:54:26.454Z,-1.21
2022-11-21T04:56:53.076Z,-1.12
2022-11-21T04:59:19.479Z,-1.07
2022-11-21T05:01:45.889Z,-1.00
2022-11-21T05:04:13.621Z,-1.01
2022-11-21T05:06:39.989Z,-0.98
2022-11-21T05:09:06.378Z,-0.96
2022-11-21T05:11:32.794Z,-0.94
2022-11-21T05:13:59.192Z,-0.91
2022-11-21T05:16:25.585Z,-0.98
2022-11-21T05:18:51.955Z,-1.04
2022-11-21T05:21:18.370Z,-1.11
2022-11-21T05:23:44.741Z,-1.15
2022-11-21T05:26:11.241Z,-1.20
2022-11-21T05:28:37.624Z,-1.21
2022-11-21T05:31:04.053Z,-1.24
2022-11-21T05:33:30.428Z,-1.25
2022-11-21T05:35:56.871Z,-1.22
2022-11-21T05:38:23.263Z,-1.16
2022-11-21T05:40:52.169Z,-1.12
2022-11-21T05:43:18.601Z,-1.16
2022-11-21T05:45:45.039Z,-1.20
2022-11-21T05:48:11.457Z,-1.23
2022-11-21T05:50:37.924Z,-1.24
2022-11-21T05:53:04.601Z,-1.31
2022-11-21T05:55:31.476Z,-1.43
2022-11-21T05:57:58.932Z,-1.45
2022-11-21T06:00:25.401Z,-1.50
2022-11-21T06:02:51.867Z,-1.48
2022-11-21T06:05:18.294Z,-1.51
2022-11-21T06:07:44.769Z,-1.56
2022-11-21T06:10:11.390Z,-1.63
2022-11-21T06:12:37.824Z,-1.73
2022-11-21T06:15:04.374Z,-1.79
2022-11-21T06:17:30.792Z,-1.69
2022-11-21T06:19:57.252Z,-1.63
2022-11-21T06:22:23.696Z,-1.58
2022-11-21T06:24:50.104Z,-1.60
2022-11-21T06:27:16.560Z,-1.59
2022-11-21T06:29:42.983Z,-1.58
2022-11-21T06:32:09.428Z,-1.60
2022-11-21T06:34:35.837Z,-1.67
2022-11-21T06:37:02.264Z,-1.70
2022-11-21T06:39:28.670Z,-1.74
2022-11-21T06:41:55.084Z,-1.81
2022-11-21T06:44:21.473Z,-1.85
2022-11-21T06:46:51.153Z,-1.88
2022-11-21T06:49:17.841Z,-1.91
2022-11-21T06:51:44.281Z,-1.91
2022-11-21T06:54:16.248Z,-1.94
2022-11-21T06:56:43.095Z,-1.93
2022-11-21T06:59:09.494Z,-1.90
2022-11-21T07:01:35.945Z,-1.85
2022-11-21T07:04:02.520Z,-1.81
2022-11-21T07:06:28.924Z,-1.83
2022-11-21T07:09:25.557Z,-1.86
2022-11-21T07:11:41.760Z,-1.91
2022-11-21T07:14:09.455Z,-1.97
2022-11-21T07:16:36.067Z,-1.99
2022-11-21T07:19:02.512Z,-1.95
2022-11-21T07:21:28.925Z,-1.95
2022-11-21T07:23:55.341Z,-2.06
2022-11-21T07:26:21.794Z,-1.97
2022-11-21T07:28:48.181Z,-1.94
2022-11-21T07:31:14.665Z,-1.90
2022-11-21T07:33:41.700Z,-1.90
2022-11-21T07:36:08.132Z,-1.90
2022-11-21T07:38:34.875Z,-1.91
2022-11-21T07:41:01.291Z,-1.84
2022-11-21T07:43:27.695Z,-1.85
2022-11-21T07:45:54.201Z,-1.95
2022-11-21T07:48:20.617Z,-1.90
2022-11-21T07:50:47.021Z,-1.91
2022-11-21T07:53:13.445Z,-1.90
2022-11-21T07:55:40.947Z,-1.87
2022-11-21T07:58:15.490Z,-1.92
2022-11-21T08:00:42.122Z,-2.00
2022-11-21T08:03:08.538Z,-2.01
2022-11-21T08:05:43.199Z,-2.05
2022-11-21T08:08:12.997Z,-2.02
2022-11-21T08:10:40.354Z,-2.00
2022-11-21T08:13:07.407Z,-2.03
2022-11-21T08:15:33.822Z,-2.03
2022-11-21T08:18:10.410Z,-2.00
2022-11-21T08:20:36.832Z,-1.94
2022-11-21T08:23:03.461Z,-1.90
2022-11-21T08:25:29.986Z,-1.91
2022-11-21T08:27:57.254Z,-1.90
2022-11-21T08:30:23.898Z,-1.90
2022-11-21T08:32:50.341Z,-1.92
2022-11-21T08:35:16.976Z,-1.85
2022-11-21T08:37:43.447Z,-1.78
2022-11-21T08:40:10.685Z,-1.79
2022-11-21T08:42:37.101Z,-1.79
2022-11-21T08:45:05.256Z,-1.84
2022-11-21T08:47:34.735Z,-1.88
2022-11-21T08:50:05.817Z,-1.87
2022-11-21T08:52:35.281Z,-1.85
2022-11-21T08:55:01.716Z,-1.87
2022-11-21T08:57:28.185Z,-1.90
2022-11-21T08:59:54.672Z,-1.80
2022-11-21T09:02:21.179Z,-1.83
2022-11-21T09:04:47.586Z,-1.71
2022-11-21T09:07:14.040Z,-1.64
2022-11-21T09:09:40.505Z,-1.59
2022-11-21T09:12:07.092Z,-1.58
2022-11-21T09:14:33.628Z,-1.52
2022-11-21T09:17:02.177Z,-1.49
2022-11-21T09:19:29.382Z,-1.50
2022-11-21T09:21:56.033Z,-1.48
2022-11-21T09:24:22.470Z,-1.44
2022-11-21T09:26:48.880Z,-1.39
2022-11-21T09:29:15.337Z,-1.33
2022-11-21T09:31:42.299Z,-1.28
2022-11-21T09:34:08.971Z,-1.23
2022-11-21T09:36:35.359Z,-1.18
2022-11-21T09:39:01.964Z,-1.19
2022-11-21T09:41:40.111Z,-1.17
2022-11-21T09:44:17.124Z,-1.25
2022-11-21T09:46:47.542Z,-1.12
2022-11-21T09:49:13.997Z,-1.03
2022-11-21T09:51:40.430Z,-1.03
2022-11-21T09:54:09.738Z,-0.92
2022-11-21T09:56:39.384Z,-0.90
2022-11-21T09:59:27.402Z,-1.01
2022-11-21T10:01:53.825Z,-1.08
2022-11-21T10:04:20.227Z,-1.06
2022-11-21T10:07:22.046Z,-1.03
2022-11-21T10:10:03.745Z,-0.92
2022-11-21T10:12:34.841Z,-0.95
2022-11-21T10:15:25.860Z,-0.89
2022-11-21T10:18:10.416Z,-0.86
2022-11-21T10:21:15.325Z,-0.87
2022-11-21T10:23:44.605Z,-0.98
2022-11-21T10:26:42.762Z,-0.98
2022-11-21T10:29:14.115Z,-0.99
2022-11-21T10:31:40.513Z,-0.94
2022-11-21T10:34:14.759Z,-0.86
2022-11-21T10:36:42.654Z,-0.84
2022-11-21T10:39:16.515Z,-0.84
2022-11-21T10:41:50.813Z,-0.73
2022-11-21T10:44:26.821Z,-0.57
2022-11-21T10:46:57.059Z,-0.47
2022-11-21T10:49:24.034Z,-0.52
2022-11-21T10:52:16.254Z,-0.51
2022-11-21T10:55:02.411Z,-0.53
2022-11-21T10:57:28.889Z,-0.46
2022-11-21T11:00:01.388Z,-0.43
2022-11-21T11:02:27.904Z,-0.35
2022-11-21T11:05:29.628Z,-0.31
2022-11-21T11:08:09.710Z,-0.27
2022-11-21T11:10:36.948Z,-0.22
2022-11-21T11:13:08.713Z,-0.26
2022-11-21T11:16:05.159Z,-0.28
2022-11-21T11:18:35.277Z,-0.27
2022-11-21T11:21:10.615Z,-0.26
2022-11-21T11:23:37.035Z,-0.20
2022-11-21T11:26:14.190Z,-0.13
2022-11-21T11:28:40.593Z,-0.10
2022-11-21T11:31:07.447Z,-0.02
2022-11-21T11:33:37.466Z,0.08
2022-11-21T11:36:14.736Z,0.17
2022-11-21T11:38:52.633Z,0.26
2022-11-21T11:41:43.321Z,0.36
2022-11-21T11:44:13.205Z,0.45
2022-11-21T11:46:49.451Z,0.53
2022-11-21T11:49:30.859Z,0.63
2022-11-21T11:52:02.222Z,0.76
2022-11-21T11:54:31.860Z,0.80
2022-11-21T11:56:58.305Z,0.85
2022-11-21T11:59:27.858Z,1.00
2022-11-21T12:01:59.566Z,1.10
2022-11-21T12:04:26.816Z,1.24
2022-11-21T12:09:57.164Z,1.45
2022-11-21T12:12:37.124Z,1.54
2022-11-21T12:15:17.422Z,1.66
2022-11-21T12:17:55.944Z,1.78
2022-11-21T12:20:28.490Z,1.77
2022-11-21T12:22:54.920Z,1.86
2022-11-21T12:25:25.326Z,1.91
2022-11-21T12:27:53.447Z,1.94
2022-11-21T12:30:35.005Z,2.01
2022-11-21T12:33:06.797Z,2.07
2022-11-21T12:35:43.921Z,2.14
2022-11-21T12:38:20.272Z,2.13
2022-11-21T12:40:52.505Z,2.09
2022-11-21T12:43:30.031Z,2.03
2022-11-21T12:46:05.281Z,2.32
2022-11-21T12:48:43.737Z,5.89
2022-11-21T12:51:16.033Z,9.57
2022-11-21T12:54:19.956Z,11.52
2022-11-21T12:56:54.960Z,11.79
2022-11-21T12:59:21.381Z,9.01
2022-11-21T13:02:00.161Z,7.01
2022-11-21T13:04:31.345Z,5.56
2022-11-21T13:06:57.762Z,4.67
2022-11-21T13:09:24.202Z,3.90
2022-11-21T13:11:53.598Z,3.35
2022-11-21T13:14:38.153Z,2.97
2022-11-21T13:17:25.879Z,2.67
2022-11-21T13:19:52.145Z,2.50
2022-11-21T13:22:36.867Z,2.36
2022-11-21T13:25:04.822Z,2.31
2022-11-21T13:27:43.638Z,2.26
2022-11-21T13:30:10.060Z,2.25
2022-11-21T13:32:39.609Z,2.20
2022-11-21T13:35:21.191Z,2.18
2022-11-21T13:38:03.405Z,2.22
2022-11-21T13:40:29.795Z,2.26
2022-11-21T13:43:32.502Z,2.25
2022-11-21T13:45:59.491Z,2.27
2022-11-21T13:48:28.869Z,2.27
2022-11-21T13:51:27.449Z,2.30
2022-11-21T13:54:28.257Z,2.29
2022-11-21T13:57:13.490Z,2.35
2022-11-21T13:59:58.348Z,2.34
2022-11-21T14:02:36.080Z,3.76
2022-11-21T14:05:53.255Z,6.13
2022-11-21T14:08:23.877Z,8.22
2022-11-21T14:10:50.954Z,9.25
2022-11-21T14:13:27.843Z,8.66
2022-11-21T14:16:35.334Z,7.18
2022-11-21T14:19:01.740Z,6.12
2022-11-21T14:21:31.899Z,5.09
2022-11-21T14:24:01.373Z,4.30
2022-11-21T14:26:27.876Z,3.68
2022-11-21T14:28:54.653Z,3.14
2022-11-21T14:31:21.172Z,2.84
2022-11-21T14:33:47.900Z,2.51
2022-11-21T14:36:19.934Z,2.31
2022-11-21T14:38:51.019Z,2.13
2022-11-21T14:41:24.052Z,1.97
2022-11-21T14:43:59.476Z,1.85
2022-11-21T14:46:27.195Z,1.75
2022-11-21T14:48:53.860Z,1.67
2022-11-21T14:51:21.226Z,1.60
2022-11-21T14:53:48.186Z,1.49
2022-11-21T14:56:25.826Z,1.45
2022-11-21T14:58:52.259Z,1.45
2022-11-21T15:01:20.409Z,1.43
2022-11-21T15:04:04.522Z,1.33
2022-11-21T15:06:31.563Z,1.26
2022-11-21T15:11:54.336Z,1.15
2022-11-21T15:14:44.345Z,1.11
2022-11-21T15:17:15.813Z,1.05
2022-11-21T15:19:42.287Z,1.05
2022-11-21T15:22:37.029Z,0.99
2022-11-21T15:25:18.713Z,0.96
2022-11-21T15:27:47.219Z,0.89
2022-11-21T15:30:14.214Z,0.88
2022-11-21T15:32:59.189Z,0.82
2022-11-21T15:35:37.773Z,0.82
2022-11-21T15:38:15.796Z,0.78
2022-11-21T15:41:04.300Z,0.76
2022-11-21T15:43:38.123Z,0.78
2022-11-21T15:46:05.524Z,0.79
2022-11-21T15:48:31.925Z,0.77
2022-11-21T15:50:59.105Z,0.70
2022-11-21T15:53:25.597Z,0.63
2022-11-21T15:55:52.064Z,0.62
2022-11-21T15:58:18.551Z,0.61
2022-11-21T16:00:45.068Z,0.60
2022-11-21T16:03:11.525Z,0.51
2022-11-21T16:05:37.935Z,0.49
2022-11-21T16:08:04.896Z,0.54
2022-11-21T16:10:31.312Z,0.53
2022-11-21T16:12:57.738Z,0.50
2022-11-21T16:15:24.180Z,0.51
2022-11-21T16:17:51.608Z,0.52
2022-11-21T16:20:18.061Z,0.50
2022-11-21T16:22:47.813Z,0.51
2022-11-21T16:25:15.562Z,0.56
2022-11-21T16:27:42.026Z,0.54
2022-11-21T16:30:08.832Z,0.52
2022-11-21T16:32:35.253Z,0.50
2022-11-21T16:35:01.654Z,0.46
2022-11-21T16:37:28.073Z,0.49
2022-11-21T16:39:55.625Z,0.50
2022-11-21T16:42:22.074Z,0.50
2022-11-21T16:44:48.470Z,0.50
2022-11-21T16:47:14.996Z,0.42
2022-11-21T16:49:41.835Z,0.37
2022-11-21T16:52:10.145Z,0.32
2022-11-21T16:54:36.548Z,0.29
2022-11-21T16:57:03.008Z,0.29
2022-11-21T16:59:29.631Z,0.26
2022-11-21T17:01:56.223Z,0.19
2022-11-21T17:04:22.654Z,0.27
2022-11-21T17:06:49.123Z,0.25
2022-11-21T17:09:16.291Z,0.19
2022-11-21T17:11:42.750Z,0.21
2022-11-21T17:14:10.759Z,0.16
2022-11-21T17:16:39.407Z,0.09
2022-11-21T17:19:05.930Z,0.09
2022-11-21T17:21:32.413Z,0.04
2022-11-21T17:23:58.872Z,0.04
2022-11-21T17:26:29.059Z,0.03
2022-11-21T17:28:59.597Z,-0.03
2022-11-21T17:31:26.227Z,-0.04
2022-11-21T17:33:52.818Z,-0.03
2022-11-21T17:36:20.608Z,-0.05
2022-11-21T17:38:47.172Z,-0.05
2022-11-21T17:41:14.803Z,-0.10
2022-11-21T17:43:41.207Z,-0.18
2022-11-21T17:46:14.841Z,-0.18
2022-11-21T17:48:41.233Z,-0.16
2022-11-21T17:51:15.404Z,-0.25
2022-11-21T17:53:43.586Z,-0.28
2022-11-21T17:56:16.909Z,-0.34
2022-11-21T17:58:43.334Z,-0.36
2022-11-21T18:01:10.932Z,-0.38
2022-11-21T18:03:37.534Z,-0.38
2022-11-21T18:06:09.619Z,-0.34
2022-11-21T18:08:37.389Z,-0.42
2022-11-21T18:11:04.543Z,-0.38
2022-11-21T18:13:32.648Z,-0.41
2022-11-21T18:16:07.001Z,-0.44
2022-11-21T18:18:34.035Z,-0.48
2022-11-21T18:21:11.334Z,-0.56
2022-11-21T18:23:38.056Z,-0.64
2022-11-21T18:26:11.133Z,-0.65
2022-11-21T18:28:37.565Z,-0.67
2022-11-21T18:31:09.028Z,-0.66
2022-11-21T18:33:36.043Z,-0.68
2022-11-21T18:36:03.078Z,-0.70
2022-11-21T18:38:48.088Z,-0.71
2022-11-21T18:41:23.741Z,-0.74
2022-11-21T18:44:00.408Z,-0.71
2022-11-21T18:46:28.707Z,-0.70
2022-11-21T18:49:04.297Z,-0.76
2022-11-21T18:51:32.393Z,-0.84
2022-11-21T18:54:06.363Z,-0.87
2022-11-21T18:56:32.929Z,-0.94
2022-11-21T18:58:59.609Z,-0.91
2022-11-21T19:01:27.928Z,-0.91
2022-11-21T19:03:54.659Z,-0.96
2022-11-21T19:06:21.976Z,-0.93
2022-11-21T19:08:48.910Z,-0.99
2022-11-21T19:11:15.516Z,-1.01
2022-11-21T19:13:42.167Z,-1.02
2022-11-21T19:16:11.413Z,-1.01
2022-11-21T19:18:40.848Z,-0.95
2022-11-21T19:21:13.355Z,-0.93
2022-11-21T19:23:40.245Z,-0.96
2022-11-21T19:26:08.754Z,-1.00
2022-11-21T19:28:35.377Z,-0.99
2022-11-21T19:31:02.581Z,-0.98
2022-11-21T19:33:29.848Z,-0.98
2022-11-21T19:36:08.585Z,-0.98
2022-11-21T19:38:36.391Z,-1.01
2022-11-21T19:41:04.180Z,-1.03
2022-11-21T19:43:30.647Z,-0.97
2022-11-21T19:46:01.876Z,-0.95
2022-11-21T19:48:28.390Z,-0.95
2022-11-21T19:50:58.836Z,-0.99
2022-11-21T19:53:26.035Z,-1.02
2022-11-21T19:55:52.602Z,-1.07
2022-11-21T19:58:19.089Z,-1.01
2022-11-21T20:00:45.622Z,-1.01
2022-11-21T20:03:12.164Z,-1.00
2022-11-21T20:05:38.655Z,-1.01
2022-11-21T20:08:14.293Z,-1.02
2022-11-21T20:10:43.792Z,-1.00
2022-11-21T20:13:10.334Z,-1.07
2022-11-21T20:15:37.892Z,-1.07
2022-11-21T20:18:04.385Z,-1.04
2022-11-21T20:20:30.865Z,-1.05
2022-11-21T20:22:57.321Z,-0.99
2022-11-21T20:25:23.700Z,-0.99
2022-11-21T20:27:50.178Z,-1.00
2022-11-21T20:30:16.821Z,-1.01
2022-11-21T20:32:43.308Z,-1.04
2022-11-21T20:35:09.697Z,-1.15
2022-11-21T20:37:36.093Z,-1.15
2022-11-21T20:40:02.584Z,-1.12
2022-11-21T20:42:28.991Z,-1.14
2022-11-21T20:47:41.923Z,-1.15
2022-11-21T20:50:08.662Z,-1.09
2022-11-21T20:55:21.528Z,-1.13
2022-11-21T20:57:47.951Z,-1.16
2022-11-21T21:00:14.844Z,-1.20
2022-11-21T21:02:41.296Z,-1.18
2022-11-21T21:05:08.038Z,-1.19
2022-11-21T21:07:34.432Z,-1.17
2022-11-21T21:10:00.864Z,-1.19
2022-11-21T21:12:27.358Z,-1.23
2022-11-21T21:14:53.776Z,-1.27
2022-11-21T21:17:20.327Z,-1.29
2022-11-21T21:19:46.839Z,-1.25
2022-11-21T21:22:13.339Z,-1.20
2022-11-21T21:24:39.848Z,-1.20
2022-11-21T21:27:06.272Z,-1.24
2022-11-21T21:29:32.976Z,-1.27
2022-11-21T21:32:00.051Z,-1.21
2022-11-21T21:34:26.657Z,-1.25
2022-11-21T21:36:53.217Z,-1.27
2022-11-21T21:39:20.848Z,-1.25
2022-11-21T21:41:48.013Z,-1.29
2022-11-21T21:44:15.052Z,-1.35
2022-11-21T21:46:41.886Z,-1.23
2022-11-21T21:49:08.383Z,-1.19
2022-11-21T21:51:34.788Z,-1.23
2022-11-21T21:54:01.481Z,-1.22
2022-11-21T21:56:28.645Z,-1.22
2022-11-21T21:58:56.277Z,-1.19
2022-11-21T22:01:28.022Z,-1.22
2022-11-21T22:03:55.541Z,-1.18
2022-11-21T22:06:22.004Z,-1.16
2022-11-21T22:08:50.184Z,-1.13
2022-11-21T22:11:19.592Z,-1.11
2022-11-21T22:13:47.189Z,-1.07
2022-11-21T22:16:13.823Z,-1.07
2022-11-21T22:18:41.662Z,-1.02
2022-11-21T22:21:22.166Z,-1.00
2022-11-21T22:24:17.807Z,-1.05
2022-11-21T22:26:35.102Z,-0.99
2022-11-21T22:29:01.525Z,-0.98
2022-11-21T22:31:29.675Z,-1.02
2022-11-21T22:33:56.134Z,-1.04
2022-11-21T22:36:22.517Z,-1.05
2022-11-21T22:38:51.868Z,-1.04
2022-11-21T22:41:19.651Z,-1.04
2022-11-21T22:43:49.577Z,-1.02
2022-11-21T22:46:16.157Z,-1.04
2022-11-21T22:48:42.616Z,-0.99
2022-11-21T22:51:14.818Z,-0.99
2022-11-21T22:53:41.280Z,-0.99
2022-11-21T22:56:09.360Z,-0.99
2022-11-21T22:58:37.567Z,-1.00
2022-11-21T23:01:17.353Z,-1.01
2022-11-21T23:03:43.839Z,-1.00
2022-11-21T23:06:14.362Z,-0.94
2022-11-21T23:08:40.883Z,-0.95
2022-11-21T23:11:08.333Z,-0.94
2022-11-21T23:13:35.108Z,-0.97
2022-11-21T23:16:02.398Z,-0.96
2022-11-21T23:18:28.895Z,-0.90
2022-11-21T23:20:55.377Z,-0.90
2022-11-21T23:23:21.843Z,-0.91
2022-11-21T23:25:48.273Z,-0.93
2022-11-21T23:28:14.678Z,-0.94
2022-11-21T23:30:41.151Z,-0.92
2022-11-21T23:33:07.567Z,-0.92
2022-11-21T23:35:33.989Z,-1.00
2022-11-21T23:38:00.407Z,-0.90
2022-11-21T23:40:26.802Z,-0.90
2022-11-21T23:42:53.235Z,-0.96
2022-11-21T23:45:19.758Z,-0.88
2022-11-21T23:47:46.702Z,-0.94
2022-11-21T23:50:13.098Z,-0.87
2022-11-21T23:52:39.493Z,-0.86
2022-11-21T23:55:06.392Z,-0.83
2022-11-21T23:57:32.873Z,-0.83
2022-11-21T23:59:59.365Z,-0.83
